createdAt,value
2018-06-18T00:01:29.923Z,100255.91
2018-06-18T00:03:58.448Z,100247.54
2018-06-18T00:06:27.057Z,100244.94
2018-06-18T00:08:55.569Z,100249.72
2018-06-18T00:11:24.212Z,100261.27
2018-06-18T00:13:52.841Z,100266.23
2018-06-18T00:16:21.428Z,100265.03
2018-06-18T00:19:21.152Z,100266.36
2018-06-18T00:21:50.015Z,100265.43
2018-06-18T00:24:18.838Z,100268.09
2018-06-18T00:26:47.592Z,100256.66
2018-06-18T00:29:16.416Z,100250.02
2018-06-18T00:31:45.276Z,100249.09
2018-06-18T00:34:14.034Z,100255.78
2018-06-18T00:36:42.857Z,100253.13
2018-06-18T00:39:11.553Z,100253.61
2018-06-18T00:41:40.273Z,100250.95
2018-06-18T00:44:08.936Z,100251.80
2018-06-18T00:46:37.592Z,100245.23
2018-06-18T00:49:06.284Z,100251.88
2018-06-18T00:51:35.214Z,100241.75
2018-06-18T00:54:03.937Z,100237.44
2018-06-18T00:56:32.671Z,100234.70
2018-06-18T00:59:01.530Z,100244.88
2018-06-18T01:01:30.325Z,100240.85
2018-06-18T01:03:59.151Z,100238.11
2018-06-18T01:06:27.914Z,100232.41
2018-06-18T01:08:56.553Z,100232.00
2018-06-18T01:11:25.192Z,100223.51
2018-06-18T01:13:53.885Z,100220.80
2018-06-18T01:16:22.650Z,100217.22
2018-06-18T01:18:51.345Z,100221.61
2018-06-18T01:21:20.348Z,100225.59
2018-06-18T01:23:58.979Z,100231.34
2018-06-18T01:26:27.693Z,100218.50
2018-06-18T01:28:56.496Z,100220.67
2018-06-18T01:31:25.301Z,100226.78
2018-06-18T01:33:56.661Z,100235.59
2018-06-18T01:36:25.495Z,100234.66
2018-06-18T01:38:54.203Z,100225.36
2018-06-18T01:41:22.926Z,100238.15
2018-06-18T01:43:51.887Z,100239.88
2018-06-18T01:46:21.119Z,100237.72
2018-06-18T01:48:49.836Z,100238.64
2018-06-18T01:51:18.638Z,100241.30
2018-06-18T01:53:47.337Z,100234.18
2018-06-18T01:56:16.087Z,100236.39
2018-06-18T01:58:44.764Z,100240.47
2018-06-18T02:01:13.440Z,100238.47
2018-06-18T02:03:42.206Z,100235.94
2018-06-18T02:06:10.853Z,100232.93
2018-06-18T02:08:39.529Z,100227.67
2018-06-18T02:11:08.243Z,100225.94
2018-06-18T02:13:36.761Z,100229.12
2018-06-18T02:16:05.348Z,100230.09
2018-06-18T02:18:34.140Z,100229.70
2018-06-18T02:21:02.859Z,100238.19
2018-06-18T02:23:31.609Z,100244.42
2018-06-18T02:26:00.429Z,100235.18
2018-06-18T02:28:34.356Z,100242.74
2018-06-18T02:31:08.206Z,100233.98
2018-06-18T02:33:42.068Z,100232.70
2018-06-18T02:36:15.794Z,100225.03
2018-06-18T02:38:49.592Z,100223.87
2018-06-18T02:41:18.165Z,100228.30
2018-06-18T02:43:46.780Z,100234.25
2018-06-18T02:46:15.512Z,100235.62
2018-06-18T02:48:44.189Z,100231.29
2018-06-18T02:51:13.074Z,100233.19
2018-06-18T02:53:41.910Z,100233.34
2018-06-18T02:56:10.824Z,100234.27
2018-06-18T02:58:39.800Z,100235.72
2018-06-18T03:01:08.697Z,100245.13
2018-06-18T03:03:37.426Z,100247.87
2018-06-18T03:06:06.186Z,100243.13
2018-06-18T03:08:35.008Z,100248.55
2018-06-18T03:11:03.828Z,100243.41
2018-06-18T03:13:32.943Z,100242.36
2018-06-18T03:16:01.984Z,100255.83
2018-06-18T03:18:35.891Z,100250.75
2018-06-18T03:21:09.804Z,100245.28
2018-06-18T03:23:44.151Z,100239.23
2018-06-18T03:26:17.890Z,100239.28
2018-06-18T03:28:51.752Z,100245.44
2018-06-18T03:31:20.589Z,100238.55
2018-06-18T03:33:49.280Z,100244.84
2018-06-18T03:36:17.996Z,100239.59
2018-06-18T03:38:47.975Z,100244.52
2018-06-18T03:41:16.889Z,100233.16
2018-06-18T03:43:49.728Z,100238.05
2018-06-18T03:46:18.336Z,100236.61
2018-06-18T03:48:47.375Z,100245.41
2018-06-18T03:51:16.351Z,100232.95
2018-06-18T03:53:45.140Z,100230.31
2018-06-18T03:56:13.899Z,100227.62
2018-06-18T03:58:42.991Z,100236.94
2018-06-18T04:01:31.269Z,100241.31
2018-06-18T04:04:07.540Z,100237.86
2018-06-18T04:06:41.194Z,100236.45
2018-06-18T04:09:15.034Z,100236.42
2018-06-18T04:11:48.885Z,100239.84
2018-06-18T04:14:17.609Z,100243.30
2018-06-18T04:16:46.535Z,100241.67
2018-06-18T04:19:15.405Z,100241.58
2018-06-18T04:21:44.039Z,100239.27
2018-06-18T04:24:12.741Z,100242.23
2018-06-18T04:26:41.930Z,100236.21
2018-06-18T04:29:10.625Z,100230.79
2018-06-18T04:31:39.277Z,100241.36
2018-06-18T04:34:21.734Z,100242.88
2018-06-18T04:36:50.466Z,100246.42
2018-06-18T04:39:19.181Z,100254.90
2018-06-18T04:41:53.164Z,100253.97
2018-06-18T04:44:27.114Z,100261.01
2018-06-18T04:47:01.063Z,100263.19
2018-06-18T04:49:35.061Z,100260.09
2018-06-18T04:52:04.438Z,100255.02
2018-06-18T04:54:33.285Z,100255.78
2018-06-18T04:57:02.549Z,100253.77
2018-06-18T04:59:32.355Z,100259.72
2018-06-18T05:02:04.246Z,100255.48
2018-06-18T05:04:33.311Z,100260.95
2018-06-18T05:07:02.132Z,100254.91
2018-06-18T05:10:33.548Z,100255.89
2018-06-18T05:13:02.537Z,100251.56
2018-06-18T05:15:36.884Z,100251.48
2018-06-18T05:18:06.122Z,100262.77
2018-06-18T05:20:34.900Z,100267.86
2018-06-18T05:23:08.008Z,100265.86
2018-06-18T05:25:36.856Z,100265.16
2018-06-18T05:28:05.837Z,100269.32
2018-06-18T05:30:34.463Z,100273.05
2018-06-18T05:33:03.277Z,100273.30
2018-06-18T05:35:32.060Z,100273.38
2018-06-18T05:38:04.223Z,100270.75
2018-06-18T05:40:33.524Z,100271.48
2018-06-18T05:43:02.062Z,100270.96
2018-06-18T05:45:30.616Z,100266.03
2018-06-18T05:47:59.343Z,100270.18
2018-06-18T05:50:27.936Z,100268.37
2018-06-18T05:52:56.772Z,100267.43
2018-06-18T05:55:25.489Z,100260.13
2018-06-18T05:57:54.033Z,100262.58
2018-06-18T06:00:22.514Z,100262.73
2018-06-18T06:02:51.426Z,100270.09
2018-06-18T06:05:20.239Z,100270.63
2018-06-18T06:07:48.924Z,100262.45
2018-06-18T06:10:17.725Z,100262.94
2018-06-18T06:12:46.328Z,100268.25
2018-06-18T06:15:16.123Z,100278.67
2018-06-18T06:17:44.870Z,100272.95
2018-06-18T06:20:13.599Z,100266.39
2018-06-18T06:22:42.229Z,100266.05
2018-06-18T06:25:10.945Z,100270.32
2018-06-18T06:27:39.711Z,100272.47
2018-06-18T06:30:08.629Z,100273.94
2018-06-18T06:32:37.263Z,100274.04
2018-06-18T06:35:17.957Z,100278.43
2018-06-18T06:37:47.226Z,100270.28
2018-06-18T06:40:15.917Z,100276.91
2018-06-18T06:42:45.235Z,100276.36
2018-06-18T06:45:13.879Z,100277.87
2018-06-18T06:47:42.548Z,100281.06
2018-06-18T06:50:11.148Z,100285.80
2018-06-18T06:52:39.753Z,100292.82
2018-06-18T06:55:08.346Z,100294.39
2018-06-18T06:57:37.534Z,100293.17
2018-06-18T07:00:06.572Z,100294.53
2018-06-18T07:02:36.056Z,100291.11
2018-06-18T07:05:04.680Z,100297.13
2018-06-18T07:07:33.358Z,100291.32
2018-06-18T07:10:01.888Z,100303.56
2018-06-18T07:12:30.580Z,100302.20
2018-06-18T07:14:59.160Z,100298.53
2018-06-18T07:17:27.808Z,100305.45
2018-06-18T07:19:56.415Z,100304.11
2018-06-18T07:22:25.154Z,100308.30
2018-06-18T07:24:53.742Z,100315.41
2018-06-18T07:27:22.289Z,100314.14
2018-06-18T07:29:50.766Z,100317.36
2018-06-18T07:32:19.337Z,100317.71
2018-06-18T07:34:47.960Z,100322.03
2018-06-18T07:37:16.809Z,100317.65
2018-06-18T07:39:45.316Z,100318.04
2018-06-18T07:42:13.986Z,100319.61
2018-06-18T07:44:42.635Z,100322.16
2018-06-18T07:47:11.133Z,100320.48
2018-06-18T07:49:39.699Z,100327.80
2018-06-18T07:52:08.200Z,100323.23
2018-06-18T07:54:36.966Z,100328.27
2018-06-18T07:57:05.723Z,100326.05
2018-06-18T07:59:34.517Z,100309.75
2018-06-18T08:02:03.070Z,100304.51
2018-06-18T08:04:31.555Z,100301.56
2018-06-18T08:07:00.097Z,100292.43
2018-06-18T08:09:29.536Z,100291.89
2018-06-18T08:11:58.023Z,100289.73
2018-06-18T08:14:26.547Z,100291.50
2018-06-18T08:16:55.082Z,100287.28
2018-06-18T08:19:23.625Z,100301.60
2018-06-18T08:21:52.209Z,100310.81
2018-06-18T08:24:21.051Z,100311.20
2018-06-18T08:26:49.551Z,100302.34
2018-06-18T08:29:18.016Z,100309.04
2018-06-18T08:31:46.611Z,100321.69
2018-06-18T08:34:15.152Z,100314.83
2018-06-18T08:36:43.680Z,100313.47
2018-06-18T08:39:12.649Z,100313.68
2018-06-18T08:41:41.360Z,100319.22
2018-06-18T08:44:09.877Z,100320.47
2018-06-18T08:46:38.522Z,100315.16
2018-06-18T08:49:08.363Z,100312.97
2018-06-18T08:51:42.093Z,100310.67
2018-06-18T08:54:15.717Z,100311.34
2018-06-18T08:56:49.530Z,100312.19
2018-06-18T08:59:23.476Z,100310.92
2018-06-18T09:01:52.086Z,100311.59
2018-06-18T09:04:25.923Z,100313.48
2018-06-18T09:06:58.553Z,100308.30
2018-06-18T09:09:27.091Z,100305.92
2018-06-18T09:11:55.659Z,100302.72
2018-06-18T09:14:24.131Z,100298.52
2018-06-18T09:16:52.702Z,100294.05
2018-06-18T09:19:21.178Z,100301.64
2018-06-18T09:21:49.698Z,100298.39
2018-06-18T09:24:18.323Z,100296.30
2018-06-18T09:26:47.548Z,100288.31
2018-06-18T09:29:16.064Z,100294.83
2018-06-18T09:31:49.196Z,100298.63
2018-06-18T09:34:17.713Z,100296.67
2018-06-18T09:36:46.224Z,100298.98
2018-06-18T09:39:14.768Z,100300.15
2018-06-18T09:41:43.311Z,100307.84
2018-06-18T09:44:11.848Z,100293.00
2018-06-18T09:46:40.362Z,100284.73
2018-06-18T09:49:14.018Z,100282.70
2018-06-18T09:53:51.564Z,100281.26
2018-06-18T09:56:25.203Z,100302.33
2018-06-18T09:58:58.860Z,100303.29
2018-06-18T10:01:33.661Z,100294.27
2018-06-18T10:04:03.791Z,100302.73
2018-06-18T10:06:34.590Z,100303.09
2018-06-18T10:09:06.245Z,100300.41
2018-06-18T10:11:35.552Z,100283.67
2018-06-18T10:14:04.771Z,100289.88
2018-06-18T10:16:33.480Z,100290.77
2018-06-18T10:19:02.378Z,100297.39
2018-06-18T10:21:31.265Z,100296.98
2018-06-18T10:23:59.905Z,100296.14
2018-06-18T10:26:28.703Z,100302.45
2018-06-18T10:28:57.546Z,100302.97
2018-06-18T10:31:26.269Z,100310.41
2018-06-18T10:33:59.907Z,100313.84
2018-06-18T10:36:34.155Z,100192.76
2018-06-18T10:39:08.357Z,100311.39
2018-06-18T10:41:42.369Z,100312.73
2018-06-18T10:44:11.254Z,100310.58
2018-06-18T10:46:40.216Z,100306.45
2018-06-18T10:49:09.119Z,100293.89
2018-06-18T10:51:38.032Z,100304.06
2018-06-18T10:54:06.773Z,100293.59
2018-06-18T10:56:35.550Z,100295.34
2018-06-18T10:59:04.404Z,100309.81
2018-06-18T11:01:34.013Z,100313.30
2018-06-18T11:04:03.708Z,100305.55
2018-06-18T11:06:33.397Z,100296.97
2018-06-18T11:09:02.639Z,100304.91
2018-06-18T11:11:31.507Z,100305.98
2018-06-18T11:14:00.491Z,100301.96
2018-06-18T11:16:29.830Z,100306.38
2018-06-18T11:19:03.655Z,100304.64
2018-06-18T11:21:37.505Z,100309.86
2018-06-18T11:24:11.506Z,100309.71
2018-06-18T11:26:45.351Z,100308.78
2018-06-18T11:29:13.963Z,100316.41
2018-06-18T11:31:42.687Z,100310.33
2018-06-18T11:34:11.501Z,100320.33
2018-06-18T11:36:40.617Z,100315.39
2018-06-18T11:39:10.183Z,100325.77
2018-06-18T11:41:39.056Z,100320.93
2018-06-18T11:44:07.728Z,100315.02
2018-06-18T11:46:36.454Z,100308.82
2018-06-18T11:49:05.354Z,100311.42
2018-06-18T11:51:34.167Z,100305.48
2018-06-18T11:54:02.950Z,100304.63
2018-06-18T11:56:33.212Z,100302.16
2018-06-18T11:59:07.376Z,100310.24
2018-06-18T12:01:42.108Z,100303.27
2018-06-18T12:04:17.042Z,100308.91
2018-06-18T12:06:51.148Z,100301.98
2018-06-18T12:09:25.692Z,100304.69
2018-06-18T12:11:56.236Z,100304.17
2018-06-18T12:14:26.057Z,100307.80
2018-06-18T12:16:57.168Z,100307.91
2018-06-18T12:19:26.146Z,100319.01
2018-06-18T12:21:55.335Z,100314.27
2018-06-18T12:24:24.051Z,100316.06
2018-06-18T12:26:54.301Z,100313.27
2018-06-18T12:29:33.604Z,100325.86
2018-06-18T12:32:03.295Z,100333.05
2018-06-18T12:34:32.695Z,100332.27
2018-06-18T12:37:01.549Z,100335.23
2018-06-18T12:39:30.371Z,100332.73
2018-06-18T12:42:02.317Z,100337.40
2018-06-18T12:44:37.284Z,100345.80
2018-06-18T12:47:11.455Z,100340.70
2018-06-18T12:49:45.234Z,100341.09
2018-06-18T12:52:19.156Z,100343.33
2018-06-18T12:54:53.282Z,100341.71
2018-06-18T12:57:21.873Z,100347.64
2018-06-18T12:59:50.449Z,100351.59
2018-06-18T13:03:22.939Z,100341.02
2018-06-18T13:05:51.497Z,100349.71
2018-06-18T13:08:20.204Z,100351.44
2018-06-18T13:10:48.758Z,100344.64
2018-06-18T13:13:17.424Z,100345.16
2018-06-18T13:15:46.093Z,100340.20
2018-06-18T13:18:14.648Z,100335.52
2018-06-18T13:20:43.253Z,100341.13
2018-06-18T13:23:11.989Z,100338.84
2018-06-18T13:25:40.496Z,100350.14
2018-06-18T13:28:14.265Z,100344.93
2018-06-18T13:30:42.923Z,100351.08
2018-06-18T13:33:11.572Z,100355.80
2018-06-18T13:35:40.272Z,100352.34
2018-06-18T13:38:14.084Z,100348.81
2018-06-18T13:40:47.770Z,100358.79
2018-06-18T13:43:21.674Z,100341.91
2018-06-18T13:48:01.235Z,100345.97
2018-06-18T13:50:29.899Z,100343.30
2018-06-18T13:52:58.596Z,100349.59
2018-06-18T13:55:27.218Z,100344.88
2018-06-18T13:57:55.798Z,100342.69
2018-06-18T14:00:24.540Z,100349.12
2018-06-18T14:02:53.101Z,100353.62
2018-06-18T14:05:21.715Z,100351.57
2018-06-18T14:07:50.373Z,100348.97
2018-06-18T14:10:19.121Z,100343.17
2018-06-18T14:12:47.718Z,100344.41
2018-06-18T14:15:16.301Z,100356.38
2018-06-18T14:17:45.015Z,100350.00
2018-06-18T14:20:18.875Z,100344.89
2018-06-18T14:22:47.933Z,100341.90
2018-06-18T14:25:16.606Z,100336.27
2018-06-18T14:27:45.267Z,100335.63
2018-06-18T14:30:19.044Z,100336.18
2018-06-18T14:32:52.972Z,100331.53
2018-06-18T14:35:26.799Z,100328.67
2018-06-18T14:38:01.019Z,100331.53
2018-06-18T14:40:29.895Z,100337.67
2018-06-18T14:42:58.489Z,100336.72
2018-06-18T14:45:27.268Z,100330.12
2018-06-18T14:47:56.005Z,100329.49
2018-06-18T14:50:24.610Z,100333.23
2018-06-18T14:52:53.293Z,100336.52
2018-06-18T14:55:21.877Z,100331.18
2018-06-18T14:57:50.471Z,100329.59
2018-06-18T15:00:22.376Z,100324.02
2018-06-18T15:02:51.055Z,100323.90
2018-06-18T15:05:20.122Z,100317.78
2018-06-18T15:07:48.999Z,100312.38
2018-06-18T15:10:18.062Z,100315.41
2018-06-18T15:12:52.947Z,100310.25
2018-06-18T15:15:26.685Z,100300.09
2018-06-18T15:20:33.452Z,100301.99
2018-06-18T15:23:06.377Z,100300.75
2018-06-18T15:25:41.432Z,100305.84
2018-06-18T15:28:10.335Z,100305.37
2018-06-18T15:30:40.142Z,100296.94
2018-06-18T15:33:11.661Z,100302.31
2018-06-18T15:35:42.415Z,100297.92
2018-06-18T15:38:11.548Z,100298.56
2018-06-18T15:40:40.262Z,100299.90
2018-06-18T15:43:10.106Z,100296.46
2018-06-18T15:45:39.355Z,100291.88
2018-06-18T15:48:08.146Z,100282.49
2018-06-18T15:50:37.063Z,100283.81
2018-06-18T15:53:06.397Z,100279.12
2018-06-18T15:55:35.380Z,100281.89
2018-06-18T15:58:04.679Z,100264.36
2018-06-18T16:00:34.656Z,100258.92
2018-06-18T16:03:03.730Z,100258.34
2018-06-18T16:05:35.547Z,100264.08
2018-06-18T16:08:07.607Z,100261.52
2018-06-18T16:10:36.359Z,100254.61
2018-06-18T16:13:04.919Z,100254.29
2018-06-18T16:15:33.628Z,100257.63
2018-06-18T16:18:02.257Z,100256.07
2018-06-18T16:20:30.941Z,100255.41
2018-06-18T16:22:59.580Z,100263.28
2018-06-18T16:25:28.166Z,100256.67
2018-06-18T16:27:56.898Z,100263.17
2018-06-18T16:30:26.866Z,100272.98
2018-06-18T16:32:56.395Z,100265.02
2018-06-18T16:35:25.134Z,100256.47
2018-06-18T16:37:53.733Z,100251.12
2018-06-18T16:40:22.502Z,100258.52
2018-06-18T16:42:51.291Z,100258.44
2018-06-18T16:45:19.874Z,100257.19
2018-06-18T16:47:48.466Z,100259.86
2018-06-18T16:50:17.072Z,100260.73
2018-06-18T16:52:45.699Z,100258.44
2018-06-18T16:55:14.910Z,100270.58
2018-06-18T16:57:43.603Z,100264.45
2018-06-18T17:00:12.171Z,100261.20
2018-06-18T17:02:40.787Z,100253.66
2018-06-18T17:05:09.380Z,100259.10
2018-06-18T17:07:37.915Z,100256.59
2018-06-18T17:10:06.576Z,100256.48
2018-06-18T17:12:35.210Z,100257.91
2018-06-18T17:15:03.933Z,100257.91
2018-06-18T17:17:32.627Z,100256.77
2018-06-18T17:20:01.157Z,100258.27
2018-06-18T17:22:29.733Z,100258.84
2018-06-18T17:24:58.859Z,100254.92
2018-06-18T17:30:19.934Z,100251.59
2018-06-18T17:32:50.090Z,100250.45
2018-06-18T17:35:23.215Z,100247.09
2018-06-18T17:37:54.306Z,100247.52
2018-06-18T17:40:23.172Z,100251.92
2018-06-18T17:42:52.093Z,100258.20
2018-06-18T17:45:26.550Z,100252.36
2018-06-18T17:47:55.339Z,100249.27
2018-06-18T17:50:24.347Z,100246.63
2018-06-18T17:52:53.098Z,100248.50
2018-06-18T17:55:30.508Z,100253.93
2018-06-18T17:58:02.977Z,100254.66
2018-06-18T18:00:31.717Z,100258.67
2018-06-18T18:03:01.235Z,100258.78
2018-06-18T18:05:31.047Z,100262.48
2018-06-18T18:08:01.139Z,100259.31
2018-06-18T18:10:30.485Z,100257.06
2018-06-18T18:13:04.942Z,100265.66
2018-06-18T18:15:34.295Z,100142.92
2018-06-18T18:18:03.265Z,100268.72
2018-06-18T18:20:32.006Z,100275.11
2018-06-18T18:23:01.303Z,100273.88
2018-06-18T18:25:30.083Z,100269.09
2018-06-18T18:27:59.133Z,100268.14
2018-06-18T18:30:28.032Z,100270.02
2018-06-18T18:32:56.888Z,100270.33
2018-06-18T18:35:26.110Z,100267.39
2018-06-18T18:37:54.954Z,100262.14
2018-06-18T18:40:24.688Z,100264.97
2018-06-18T18:43:02.418Z,100256.25
2018-06-18T18:45:32.265Z,100262.50
2018-06-18T18:48:01.664Z,100264.50
2018-06-18T18:50:30.493Z,100262.19
2018-06-18T18:53:00.042Z,100262.12
2018-06-18T18:59:41.253Z,100269.88
2018-06-18T19:02:11.064Z,100265.08
2018-06-18T19:04:47.756Z,100276.50
2018-06-18T19:07:18.846Z,100276.19
2018-06-18T19:10:29.684Z,100269.37
2018-06-18T19:13:00.174Z,100274.18
2018-06-18T19:15:29.105Z,100281.00
2018-06-18T19:17:58.011Z,100278.82
2018-06-18T19:20:34.013Z,100272.70
2018-06-18T19:23:04.050Z,100271.37
2018-06-18T19:25:33.300Z,100271.44
2018-06-18T19:28:02.732Z,100274.18
2018-06-18T19:30:32.907Z,100268.94
2018-06-18T19:33:07.710Z,100274.81
2018-06-18T19:35:36.567Z,100266.02
2018-06-18T19:38:05.872Z,100270.66
2018-06-18T19:40:34.717Z,100279.61
2018-06-18T19:43:03.342Z,100281.58
2018-06-18T19:45:33.694Z,100275.39
2018-06-18T19:48:06.892Z,100286.53
2018-06-18T19:50:35.598Z,100285.20
2018-06-18T19:53:04.613Z,100283.08
2018-06-18T19:55:34.191Z,100287.09
2018-06-18T19:58:02.992Z,100282.20
2018-06-18T20:01:04.508Z,100287.64
2018-06-18T20:03:33.443Z,100286.55
2018-06-18T20:06:02.125Z,100292.02
2018-06-18T20:08:31.494Z,100294.80
2018-06-18T20:11:00.224Z,100301.47
2018-06-18T20:13:29.142Z,100305.94
2018-06-18T20:15:57.862Z,100306.81
2018-06-18T20:18:26.598Z,100313.55
2018-06-18T20:20:55.169Z,100318.05
2018-06-18T20:23:25.353Z,100319.38
2018-06-18T20:26:01.222Z,100323.39
2018-06-18T20:28:29.987Z,100329.50
2018-06-18T20:30:58.743Z,100329.50
2018-06-18T20:33:27.599Z,100327.78
2018-06-18T20:36:03.394Z,100337.97
2018-06-18T20:38:31.988Z,100336.73
2018-06-18T20:41:01.123Z,100337.97
2018-06-18T20:43:33.436Z,100352.75
2018-06-18T20:46:02.430Z,100348.03
2018-06-18T20:48:31.003Z,100349.08
2018-06-18T20:51:00.180Z,100352.86
2018-06-18T20:53:28.977Z,100359.75
2018-06-18T20:55:58.508Z,100362.48
2018-06-18T20:58:27.437Z,100362.59
2018-06-18T21:00:56.236Z,100359.59
2018-06-18T21:03:25.299Z,100363.72
2018-06-18T21:05:54.082Z,100364.77
2018-06-18T21:08:23.049Z,100363.16
2018-06-18T21:10:51.720Z,100365.11
2018-06-18T21:13:20.504Z,100366.05
2018-06-18T21:15:49.912Z,100371.94
2018-06-18T21:18:19.262Z,100379.06
2018-06-18T21:20:48.051Z,100377.34
2018-06-18T21:23:16.835Z,100383.07
2018-06-18T21:25:45.362Z,100384.95
2018-06-18T21:28:14.266Z,100380.95
2018-06-18T21:30:43.211Z,100380.56
2018-06-18T21:33:12.065Z,100383.72
2018-06-18T21:35:40.960Z,100384.95
2018-06-18T21:38:09.765Z,100384.95
2018-06-18T21:40:38.705Z,100390.29
2018-06-18T21:43:07.533Z,100391.23
2018-06-18T21:45:36.264Z,100381.50
2018-06-18T21:48:04.926Z,100385.78
2018-06-18T21:50:33.487Z,100381.16
2018-06-18T21:53:02.126Z,100384.38
2018-06-18T21:55:30.742Z,100385.20
2018-06-18T21:57:59.336Z,100395.59
2018-06-18T22:00:35.068Z,100394.02
2018-06-18T22:03:03.684Z,100390.26
2018-06-18T22:05:32.273Z,100390.56
2018-06-18T22:08:01.153Z,100385.34
2018-06-18T22:10:29.695Z,100393.89
2018-06-18T22:12:58.207Z,100387.77
2018-06-18T22:15:26.737Z,100393.10
2018-06-18T22:17:56.195Z,100395.92
2018-06-18T22:20:24.891Z,100394.59
2018-06-18T22:22:53.663Z,100387.92
2018-06-18T22:25:22.187Z,100389.77
2018-06-18T22:27:50.897Z,100380.04
2018-06-18T22:30:19.579Z,100386.37
2018-06-18T22:32:48.372Z,100385.13
2018-06-18T22:35:17.024Z,100387.52
2018-06-18T22:37:45.612Z,100382.00
2018-06-18T22:40:14.393Z,100387.14
2018-06-18T22:42:43.167Z,100385.61
2018-06-18T22:45:13.382Z,100384.14
2018-06-18T22:47:42.057Z,100387.10
2018-06-18T22:50:10.584Z,100391.16
2018-06-18T22:52:39.252Z,100393.96
2018-06-18T22:55:07.804Z,100399.09
2018-06-18T22:57:36.310Z,100396.23
2018-06-18T23:00:04.833Z,100397.78
2018-06-18T23:02:33.903Z,100402.36
2018-06-18T23:05:02.439Z,100396.49
2018-06-18T23:07:30.992Z,100395.84
2018-06-18T23:09:59.787Z,100402.79
2018-06-18T23:12:37.256Z,100394.69
2018-06-18T23:15:06.921Z,100399.31
2018-06-18T23:17:35.517Z,100412.02
2018-06-18T23:20:04.084Z,100402.00
2018-06-18T23:22:32.635Z,100407.59
2018-06-18T23:25:01.198Z,100400.64
2018-06-18T23:27:29.758Z,100408.89
2018-06-18T23:29:58.373Z,100408.98
2018-06-18T23:32:26.981Z,100414.89
2018-06-18T23:34:55.608Z,100411.48
2018-06-18T23:37:24.206Z,100406.34
2018-06-18T23:39:52.740Z,100409.58
2018-06-18T23:42:21.309Z,100407.89
2018-06-18T23:44:49.890Z,100401.83
2018-06-18T23:47:18.433Z,100414.77
2018-06-18T23:49:47.064Z,100410.11
2018-06-18T23:52:15.720Z,100413.79
2018-06-18T23:54:44.362Z,100412.59
2018-06-18T23:57:12.896Z,100414.53
2018-06-18T23:59:41.754Z,100418.20
